Time;durP1;ratioP1;P1;durP2;ratioP2;P2;SDS_P1;SDS_P2;PMS_P1;PMS_P2;Temp;Humidity;BMP_temperature;BMP_pressure;BME280_temperature;BME280_humidity;BME280_pressure;Samples;Min_cycle;Max_cycle;Signal;HPM_P1;HPM_P2
2023/12/01 00:02:15;;;;;;;24.67;16.23;;;6.30;99.90;;;;;;4948809;28;20849;-37
2023/12/01 00:04:43;;;;;;;28.10;16.37;;;6.30;99.90;;;;;;4983061;28;20461;-38
2023/12/01 00:07:12;;;;;;;26.63;17.10;;;6.30;99.90;;;;;;4982995;28;20457;-38
2023/12/01 00:09:40;;;;;;;29.07;17.37;;;6.20;99.90;;;;;;4965041;28;20460;-40
2023/12/01 00:12:12;;;;;;;27.80;16.55;;;6.30;99.90;;;;;;4982744;28;20836;-38
2023/12/01 00:14:40;;;;;;;24.67;14.95;;;6.20;99.90;;;;;;4964553;28;20218;-40
2023/12/01 00:17:07;;;;;;;27.00;16.00;;;6.20;99.90;;;;;;4948324;28;20195;-37
2023/12/01 00:19:35;;;;;;;25.10;15.60;;;6.20;99.90;;;;;;4964801;28;20428;-39
2023/12/01 00:22:01;;;;;;;23.00;14.13;;;6.20;99.90;;;;;;4963664;28;20459;-36
2023/12/01 00:24:29;;;;;;;31.77;17.27;;;6.20;99.90;;;;;;4982674;28;20814;-34
2023/12/01 00:26:57;;;;;;;27.70;15.60;;;6.20;99.90;;;;;;4982531;28;20427;-38
2023/12/01 00:29:23;;;;;;;25.30;16.40;;;6.20;99.90;;;;;;4965180;28;20475;-37
2023/12/01 00:31:52;;;;;;;25.97;16.07;;;6.20;99.90;;;;;;4963013;28;20539;-36
2023/12/01 00:34:20;;;;;;;26.30;16.37;;;6.10;99.90;;;;;;4982025;28;20450;-37
2023/12/01 00:36:49;;;;;;;23.17;16.03;;;6.10;99.90;;;;;;4961641;28;20441;-40
2023/12/01 00:39:17;;;;;;;27.20;16.47;;;6.10;99.90;;;;;;4983232;28;20477;-35
2023/12/01 00:41:45;;;;;;;29.53;16.93;;;6.10;99.90;;;;;;4981720;28;20466;-35
2023/12/01 00:44:14;;;;;;;26.83;16.03;;;6.10;99.90;;;;;;4965061;28;20447;-36
2023/12/01 00:46:40;;;;;;;29.98;16.25;;;6.20;99.90;;;;;;4962069;28;20442;-37
2023/12/01 00:49:14;;;;;;;26.80;15.87;;;6.20;99.90;;;;;;4979743;28;20182;-39
2023/12/01 00:51:43;;;;;;;27.97;16.97;;;6.20;99.90;;;;;;4958893;28;20469;-38
2023/12/01 00:54:12;;;;;;;25.30;15.37;;;6.20;99.90;;;;;;4960386;28;21091;-37
2023/12/01 00:56:40;;;;;;;27.07;15.37;;;6.20;99.90;;;;;;4981074;28;20431;-38
2023/12/01 00:59:09;;;;;;;22.37;14.47;;;6.20;99.90;;;;;;4963519;28;20526;-39
2023/12/01 01:01:38;;;;;;;25.33;15.95;;;6.20;99.90;;;;;;4962421;28;20448;-39
2023/12/01 01:04:09;;;;;;;27.90;14.40;;;6.10;99.90;;;;;;4980358;28;20262;-38
2023/12/01 01:06:35;;;;;;;28.00;16.67;;;6.10;99.90;;;;;;4963214;28;20446;-35
2023/12/01 01:09:01;;;;;;;28.20;15.27;;;6.10;99.90;;;;;;4962434;28;20455;-37
2023/12/01 01:11:30;;;;;;;25.37;15.93;;;6.10;99.90;;;;;;5006824;22;20567;-30
2023/12/01 01:13:59;;;;;;;31.02;15.60;;;6.10;99.90;;;;;;5020205;28;20455;-31
2023/12/01 01:16:27;;;;;;;24.90;14.90;;;6.20;99.90;;;;;;5019489;28;20250;-31
2023/12/01 01:18:56;;;;;;;25.70;16.27;;;6.20;99.90;;;;;;5019363;28;20449;-30
2023/12/01 01:21:23;;;;;;;26.43;15.73;;;6.20;99.90;;;;;;5019755;28;20518;-31
2023/12/01 01:23:49;;;;;;;26.37;17.27;;;6.10;99.90;;;;;;5003367;28;20457;-31
2023/12/01 01:26:15;;;;;;;25.40;15.40;;;6.10;99.90;;;;;;5014438;28;20465;-31
2023/12/01 01:28:41;;;;;;;31.53;19.30;;;6.10;99.90;;;;;;5021214;28;20464;-30
2023/12/01 01:31:07;;;;;;;26.47;16.13;;;6.20;99.90;;;;;;5019464;28;20480;-30
2023/12/01 01:33:36;;;;;;;31.93;17.27;;;6.10;99.90;;;;;;5019018;28;21120;-31
2023/12/01 01:36:02;;;;;;;27.93;16.97;;;6.10;99.90;;;;;;5019039;28;20894;-32
2023/12/01 01:38:28;;;;;;;34.17;17.08;;;6.10;99.90;;;;;;5014032;28;21386;-32
2023/12/01 01:40:58;;;;;;;28.38;15.55;;;6.10;99.90;;;;;;5024872;28;20207;-32
2023/12/01 01:43:27;;;;;;;25.27;15.90;;;6.10;99.90;;;;;;5025160;28;20215;-30
2023/12/01 01:46:05;;;;;;;29.05;15.77;;;6.10;99.90;;;;;;5006447;28;20452;-31
2023/12/01 01:48:34;;;;;;;29.57;17.70;;;6.10;99.90;;;;;;5034655;28;20224;-29
2023/12/01 01:51:05;;;;;;;26.43;16.17;;;6.10;99.90;;;;;;5019273;28;20467;-29
2023/12/01 01:53:37;;;;;;;26.57;16.00;;;6.10;99.90;;;;;;5014296;28;21012;-32
2023/12/01 01:56:09;;;;;;;31.03;17.60;;;6.10;99.90;;;;;;5017826;28;20536;-30
2023/12/01 01:58:37;;;;;;;26.27;15.63;;;6.10;99.90;;;;;;5003299;28;20526;-30
2023/12/01 02:01:03;;;;;;;31.50;16.40;;;6.10;99.90;;;;;;5008973;28;20440;-31
2023/12/01 02:03:29;;;;;;;26.88;16.65;;;6.00;99.90;;;;;;5022277;28;20447;-31
2023/12/01 02:05:55;;;;;;;27.90;16.83;;;6.10;99.90;;;;;;5020646;28;20649;-31
2023/12/01 02:08:25;;;;;;;27.20;17.40;;;6.10;99.90;;;;;;5018506;28;20909;-30
2023/12/01 02:10:54;;;;;;;24.83;16.10;;;6.10;99.90;;;;;;5023356;28;20467;-29
2023/12/01 02:13:24;;;;;;;28.30;16.43;;;6.10;99.90;;;;;;5017599;28;20459;-30
2023/12/01 02:15:52;;;;;;;30.53;17.37;;;6.10;99.90;;;;;;5018588;28;20512;-30
2023/12/01 02:18:33;;;;;;;27.65;16.20;;;6.10;99.90;;;;;;5001804;28;20435;-31
2023/12/01 02:21:02;;;;;;;27.33;14.70;;;6.10;99.90;;;;;;5018451;28;20240;-30
2023/12/01 02:23:28;;;;;;;29.25;17.30;;;6.10;99.90;;;;;;5020184;28;21104;-31
2023/12/01 02:25:54;;;;;;;28.08;17.20;;;6.10;99.90;;;;;;5023546;28;20186;-31
2023/12/01 02:28:20;;;;;;;26.20;15.20;;;6.10;99.90;;;;;;5010929;28;20239;-30
2023/12/01 02:30:56;;;;;;;27.50;16.53;;;6.10;99.90;;;;;;5018781;28;20470;-30
2023/12/01 02:33:23;;;;;;;29.90;17.17;;;6.10;99.90;;;;;;5018265;28;20992;-29
2023/12/01 02:35:51;;;;;;;28.33;16.80;;;6.10;99.90;;;;;;5019954;28;20423;-30
2023/12/01 02:38:18;;;;;;;30.53;16.73;;;6.10;99.90;;;;;;5019564;28;20326;-30
2023/12/01 02:40:50;;;;;;;30.07;17.90;;;6.10;99.90;;;;;;5020271;28;20427;-30
2023/12/01 02:43:17;;;;;;;23.93;14.57;;;6.20;99.90;;;;;;5017853;28;21316;-31
2023/12/01 02:45:48;;;;;;;28.90;16.42;;;6.10;99.90;;;;;;5017768;28;20450;-31
2023/12/01 02:48:16;;;;;;;31.17;17.07;;;6.10;99.90;;;;;;5019924;28;20264;-29
2023/12/01 02:50:43;;;;;;;29.03;16.80;;;6.20;99.90;;;;;;5019600;28;20547;-28
2023/12/01 02:53:11;;;;;;;29.40;17.10;;;6.20;99.90;;;;;;5019095;28;20475;-30
2023/12/01 02:55:37;;;;;;;26.30;17.60;;;6.10;99.90;;;;;;5017683;28;20444;-31
2023/12/01 02:58:06;;;;;;;27.23;16.73;;;6.10;99.90;;;;;;5017440;28;20530;-30
2023/12/01 03:00:35;;;;;;;26.80;16.50;;;6.10;99.90;;;;;;5013397;28;20186;-30
2023/12/01 03:03:02;;;;;;;29.60;17.10;;;6.10;99.90;;;;;;5019558;28;20511;-29
2023/12/01 03:05:33;;;;;;;26.53;16.63;;;6.10;99.90;;;;;;5019952;28;20518;-29
2023/12/01 03:07:59;;;;;;;25.40;16.23;;;6.10;99.90;;;;;;5001253;28;20437;-30
2023/12/01 03:10:25;;;;;;;26.27;15.43;;;6.10;99.90;;;;;;5019036;28;20482;-30
2023/12/01 03:12:53;;;;;;;26.07;14.80;;;6.20;99.90;;;;;;5031355;28;20674;-30
2023/12/01 03:15:20;;;;;;;25.73;15.63;;;6.10;99.90;;;;;;5020965;28;20466;-30
2023/12/01 03:17:48;;;;;;;22.80;15.35;;;6.10;99.90;;;;;;5011999;28;20561;-30
2023/12/01 03:20:15;;;;;;;28.03;16.47;;;6.10;99.90;;;;;;5024795;28;20202;-29
2023/12/01 03:22:44;;;;;;;28.38;16.30;;;6.20;99.90;;;;;;5025534;28;20513;-29
2023/12/01 03:25:11;;;;;;;26.02;16.92;;;6.20;99.90;;;;;;5021479;28;20189;-30
2023/12/01 03:27:43;;;;;;;27.95;16.85;;;6.30;99.90;;;;;;5026534;28;20788;-30
2023/12/01 03:30:17;;;;;;;29.30;16.17;;;6.30;99.90;;;;;;5020658;28;20220;-30
2023/12/01 03:32:51;;;;;;;26.90;16.93;;;6.30;99.90;;;;;;5035957;28;20443;-31
2023/12/01 03:35:24;;;;;;;22.63;14.67;;;6.30;99.90;;;;;;4994711;28;20440;-29
2023/12/01 03:37:55;;;;;;;28.47;15.50;;;6.20;99.90;;;;;;5023453;28;20432;-30
2023/12/01 03:40:25;;;;;;;27.27;16.50;;;6.20;99.90;;;;;;5022185;28;20453;-30
2023/12/01 03:42:51;;;;;;;28.90;17.30;;;6.20;99.90;;;;;;5023594;28;20440;-30
2023/12/01 03:45:18;;;;;;;30.13;16.75;;;6.30;99.90;;;;;;5006845;28;20430;-30
2023/12/01 03:47:49;;;;;;;24.67;15.80;;;6.20;99.90;;;;;;5023305;28;20202;-29
2023/12/01 03:50:18;;;;;;;25.57;15.07;;;6.20;99.90;;;;;;5000666;28;20490;-29
2023/12/01 03:52:46;;;;;;;24.20;15.27;;;6.20;99.90;;;;;;5025461;28;20420;-30
2023/12/01 03:55:18;;;;;;;25.23;16.40;;;6.20;99.90;;;;;;5031628;28;20444;-29
2023/12/01 03:57:46;;;;;;;29.77;16.43;;;6.10;99.90;;;;;;5027623;28;20447;-31
2023/12/01 04:00:16;;;;;;;28.60;16.30;;;6.10;99.90;;;;;;5031111;28;20447;-30
2023/12/01 04:02:46;;;;;;;25.70;15.60;;;6.10;99.90;;;;;;5024613;28;21063;-30
2023/12/01 04:05:17;;;;;;;27.02;16.50;;;6.10;99.90;;;;;;5007928;28;20453;-30
2023/12/01 04:07:46;;;;;;;32.05;17.85;;;6.10;99.90;;;;;;5026396;28;20220;-31
2023/12/01 04:10:16;;;;;;;30.10;16.37;;;6.10;99.90;;;;;;5013941;28;20220;-30
2023/12/01 04:12:46;;;;;;;26.93;15.67;;;6.10;99.90;;;;;;5008094;28;20544;-29
2023/12/01 04:15:18;;;;;;;28.10;16.50;;;6.10;99.90;;;;;;5028850;28;20475;-30
2023/12/01 04:17:49;;;;;;;30.13;17.40;;;6.10;99.90;;;;;;5024789;28;20428;-29
2023/12/01 04:20:20;;;;;;;28.10;17.20;;;6.10;99.90;;;;;;5032331;28;20430;-30
2023/12/01 04:22:56;;;;;;;33.80;17.97;;;6.10;99.90;;;;;;5027445;28;20482;-31
2023/12/01 04:25:22;;;;;;;31.53;17.53;;;6.10;99.90;;;;;;5031407;28;20446;-29
2023/12/01 04:27:52;;;;;;;26.60;15.30;;;6.10;99.90;;;;;;5028741;28;20435;-30
2023/12/01 04:30:18;;;;;;;24.37;16.20;;;6.10;99.90;;;;;;5028760;28;20496;-30
2023/12/01 04:32:47;;;;;;;26.53;16.23;;;6.10;99.90;;;;;;5026628;28;20460;-31
2023/12/01 04:35:15;;;;;;;25.87;16.20;;;6.10;99.90;;;;;;5031965;28;20439;-31
2023/12/01 04:37:41;;;;;;;25.50;16.17;;;6.00;99.90;;;;;;5031460;28;20808;-28
2023/12/01 04:40:14;;;;;;;28.92;16.42;;;6.10;99.90;;;;;;5030744;28;21376;-29
2023/12/01 04:42:46;;;;;;;25.90;16.13;;;6.10;99.90;;;;;;5023895;28;20423;-29
2023/12/01 04:45:17;;;;;;;26.43;15.87;;;6.20;99.90;;;;;;5035933;28;20857;-30
2023/12/01 04:47:44;;;;;;;23.43;15.70;;;6.10;99.90;;;;;;5028097;28;20433;-30
2023/12/01 04:50:14;;;;;;;30.10;17.40;;;6.10;99.90;;;;;;5029288;28;20570;-31
2023/12/01 04:52:46;;;;;;;25.83;17.70;;;6.10;99.90;;;;;;5028739;28;21005;-30
2023/12/01 04:55:17;;;;;;;31.53;16.50;;;6.10;99.90;;;;;;5014193;28;21008;-29
2023/12/01 04:57:45;;;;;;;31.03;17.60;;;6.10;99.90;;;;;;5031437;28;20449;-31
2023/12/01 05:00:25;;;;;;;30.50;17.67;;;6.10;99.90;;;;;;5030379;28;20429;-30
2023/12/01 05:02:55;;;;;;;26.63;17.20;;;6.10;99.90;;;;;;5023579;28;20420;-30
2023/12/01 05:05:22;;;;;;;29.97;18.37;;;6.10;99.90;;;;;;5031059;28;20470;-31
2023/12/01 05:07:51;;;;;;;25.43;16.63;;;6.10;99.90;;;;;;5025593;28;20417;-30
2023/12/01 05:10:22;;;;;;;29.60;16.87;;;6.00;99.90;;;;;;5030057;28;21372;-30
2023/12/01 05:12:49;;;;;;;31.13;19.20;;;6.00;99.90;;;;;;5030561;28;20448;-30
2023/12/01 05:15:20;;;;;;;26.90;16.50;;;6.00;99.90;;;;;;5029156;28;20484;-29
2023/12/01 05:17:47;;;;;;;26.63;16.00;;;6.00;99.90;;;;;;5026029;28;20512;-32
2023/12/01 05:20:17;;;;;;;26.70;16.30;;;6.00;99.90;;;;;;5029200;28;20508;-31
2023/12/01 05:22:53;;;;;;;28.47;16.50;;;6.00;99.90;;;;;;5031048;28;20447;-31
2023/12/01 05:25:25;;;;;;;28.17;17.00;;;6.00;99.90;;;;;;5013711;28;20464;-31
2023/12/01 05:27:59;;;;;;;26.80;16.47;;;6.00;99.90;;;;;;5023926;28;20529;-30
2023/12/01 05:30:29;;;;;;;26.83;15.52;;;6.00;99.90;;;;;;5009021;28;20483;-29
2023/12/01 05:32:58;;;;;;;27.63;16.57;;;6.00;99.90;;;;;;5027392;28;20221;-31
2023/12/01 05:35:24;;;;;;;28.90;16.52;;;5.90;99.90;;;;;;5009506;28;21214;-30
2023/12/01 05:37:54;;;;;;;25.80;15.77;;;5.90;99.90;;;;;;5027189;28;20207;-31
2023/12/01 05:40:35;;;;;;;28.50;16.67;;;6.00;99.90;;;;;;5028619;28;20694;-31
2023/12/01 05:43:03;;;;;;;25.87;15.20;;;6.00;99.90;;;;;;5028509;28;20448;-30
2023/12/01 05:45:35;;;;;;;21.50;14.45;;;6.00;99.90;;;;;;5024450;28;20438;-30
2023/12/01 05:48:06;;;;;;;28.10;16.13;;;6.00;99.90;;;;;;5027537;28;20745;-31
2023/12/01 05:50:33;;;;;;;24.70;14.40;;;6.00;99.90;;;;;;5028467;28;20475;-30
2023/12/01 05:53:03;;;;;;;23.60;14.83;;;6.00;99.90;;;;;;5028541;28;20946;-31
2023/12/01 05:55:33;;;;;;;25.83;15.87;;;6.00;99.90;;;;;;5026065;28;20453;-30
2023/12/01 05:58:10;;;;;;;28.13;16.23;;;6.00;99.90;;;;;;5023568;28;20443;-31
2023/12/01 06:00:38;;;;;;;25.83;15.68;;;6.00;99.90;;;;;;5027350;28;20427;-31
2023/12/01 06:03:06;;;;;;;23.97;15.77;;;6.00;99.90;;;;;;5026732;28;20222;-30
2023/12/01 06:05:36;;;;;;;26.80;15.63;;;6.00;99.90;;;;;;5024574;28;20443;-29
2023/12/01 06:08:04;;;;;;;23.90;14.27;;;6.00;99.90;;;;;;5013376;28;20257;-30
2023/12/01 06:10:32;;;;;;;29.83;16.20;;;6.10;99.90;;;;;;5024012;28;20476;-30
2023/12/01 06:13:04;;;;;;;24.73;15.20;;;6.10;99.90;;;;;;5029569;28;20464;-29
2023/12/01 06:15:30;;;;;;;25.10;14.27;;;6.00;99.90;;;;;;5025936;28;21022;-31
2023/12/01 06:17:58;;;;;;;26.57;16.37;;;6.00;99.90;;;;;;5027674;28;20445;-29
2023/12/01 06:20:24;;;;;;;26.10;16.20;;;6.00;99.90;;;;;;5027526;28;20817;-31
2023/12/01 06:22:51;;;;;;;27.77;16.33;;;6.00;99.90;;;;;;5022568;28;20454;-30
2023/12/01 06:25:20;;;;;;;23.63;14.37;;;6.00;99.90;;;;;;5023111;28;20479;-31
2023/12/01 06:27:46;;;;;;;25.73;15.73;;;6.00;99.90;;;;;;5024594;28;20444;-31
2023/12/01 06:30:14;;;;;;;25.77;15.83;;;6.00;99.90;;;;;;5027642;28;20518;-29
2023/12/01 06:32:45;;;;;;;24.87;15.40;;;6.00;99.90;;;;;;5031054;28;20541;-30
2023/12/01 06:35:13;;;;;;;22.73;14.90;;;5.90;99.90;;;;;;5027182;28;20460;-30
2023/12/01 06:37:40;;;;;;;27.70;15.90;;;5.90;99.90;;;;;;5026576;28;20423;-32
2023/12/01 06:40:15;;;;;;;25.73;15.33;;;6.00;99.90;;;;;;5030968;28;20421;-32
2023/12/01 06:43:09;;;;;;;25.00;16.20;;;6.00;99.90;;;;;;5033036;28;20463;-30
2023/12/01 06:45:36;;;;;;;24.40;15.20;;;6.00;99.90;;;;;;5023730;28;20435;-31
2023/12/01 06:48:02;;;;;;;26.40;15.03;;;6.00;99.90;;;;;;5023290;28;20429;-30
2023/12/01 06:50:30;;;;;;;21.83;14.17;;;5.90;99.90;;;;;;5021781;28;20511;-29
2023/12/01 06:53:01;;;;;;;23.25;14.55;;;5.90;99.90;;;;;;5012985;28;20446;-30
2023/12/01 06:55:31;;;;;;;25.63;15.23;;;5.90;99.90;;;;;;4988637;28;20221;-31
2023/12/01 06:57:59;;;;;;;24.83;14.70;;;5.90;99.90;;;;;;5036036;28;20441;-31
2023/12/01 07:00:33;;;;;;;21.93;13.07;;;5.90;99.90;;;;;;5030964;28;20453;-28
2023/12/01 07:03:04;;;;;;;24.20;13.87;;;5.90;99.90;;;;;;5044087;28;20452;-31
2023/12/01 07:05:32;;;;;;;22.23;13.20;;;5.90;99.90;;;;;;5028095;28;21310;-28
2023/12/01 07:08:01;;;;;;;21.33;14.20;;;5.90;99.90;;;;;;5028702;28;20476;-31
2023/12/01 07:10:32;;;;;;;20.03;13.07;;;5.90;99.90;;;;;;5022806;28;20531;-29
2023/12/01 07:12:59;;;;;;;20.03;12.97;;;5.90;99.90;;;;;;5028146;28;20475;-32
2023/12/01 07:15:25;;;;;;;21.50;12.60;;;5.90;99.90;;;;;;5024342;28;20455;-30
2023/12/01 07:17:55;;;;;;;20.00;12.80;;;6.00;99.90;;;;;;5024286;28;20448;-31
2023/12/01 07:20:22;;;;;;;19.50;12.20;;;5.90;99.90;;;;;;5034129;28;21145;-31
2023/12/01 07:22:51;;;;;;;18.97;12.20;;;5.90;99.90;;;;;;5024055;28;20462;-30
2023/12/01 07:25:23;;;;;;;16.55;12.05;;;5.90;99.90;;;;;;5033466;28;20431;-30
2023/12/01 07:27:53;;;;;;;17.10;10.97;;;5.90;99.90;;;;;;5022785;28;20280;-32
2023/12/01 07:30:19;;;;;;;20.10;13.47;;;6.00;99.90;;;;;;5024120;28;20527;-31
2023/12/01 07:32:48;;;;;;;17.30;11.25;;;6.00;99.90;;;;;;5025534;28;20506;-30
2023/12/01 07:35:15;;;;;;;19.60;11.60;;;6.00;99.90;;;;;;5028086;28;20192;-30
2023/12/01 07:37:43;;;;;;;17.33;12.40;;;6.00;99.90;;;;;;5019067;28;20459;-30
2023/12/01 07:40:10;;;;;;;18.50;11.83;;;6.10;99.90;;;;;;5008586;28;20542;-30
2023/12/01 07:42:39;;;;;;;17.50;11.30;;;6.00;99.90;;;;;;5026848;28;20526;-30
2023/12/01 07:45:08;;;;;;;15.90;10.77;;;5.90;99.90;;;;;;5006585;28;20447;-30
2023/12/01 07:47:39;;;;;;;16.87;11.20;;;6.00;99.90;;;;;;5023583;28;20197;-29
2023/12/01 07:50:05;;;;;;;16.00;10.33;;;6.00;99.90;;;;;;5032519;28;20509;-30
2023/12/01 07:52:32;;;;;;;16.57;11.20;;;6.00;99.90;;;;;;5035428;28;20535;-30
2023/12/01 07:54:58;;;;;;;18.77;10.90;;;6.10;99.90;;;;;;5026656;28;21467;-31
2023/12/01 07:57:24;;;;;;;16.37;11.40;;;6.00;99.90;;;;;;5012152;28;20440;-30
2023/12/01 07:59:53;;;;;;;17.07;11.30;;;5.90;99.90;;;;;;5026777;28;20495;-28
2023/12/01 08:02:19;;;;;;;16.90;10.95;;;6.00;99.90;;;;;;5029859;28;20440;-29
2023/12/01 08:04:45;;;;;;;17.73;10.57;;;5.90;99.90;;;;;;5028553;28;20237;-30
2023/12/01 08:07:11;;;;;;;19.93;12.40;;;5.90;99.90;;;;;;5030292;28;20519;-30
2023/12/01 08:09:38;;;;;;;16.48;10.95;;;5.90;99.90;;;;;;5040208;28;20502;-31
2023/12/01 08:12:07;;;;;;;16.83;10.97;;;5.90;99.90;;;;;;5031156;28;20221;-31
2023/12/01 08:14:35;;;;;;;15.90;10.70;;;5.90;99.90;;;;;;5026889;28;20441;-31
2023/12/01 08:17:03;;;;;;;18.17;10.50;;;5.90;99.90;;;;;;5024261;28;20798;-31
2023/12/01 08:19:33;;;;;;;17.17;11.23;;;5.90;99.90;;;;;;5025707;28;20433;-31
2023/12/01 08:22:02;;;;;;;16.37;10.90;;;5.90;99.90;;;;;;5027761;28;21459;-31
2023/12/01 08:24:28;;;;;;;19.52;11.40;;;5.90;99.90;;;;;;5025934;28;20454;-30
2023/12/01 08:26:56;;;;;;;16.43;10.90;;;5.90;99.90;;;;;;5028506;28;20248;-29
2023/12/01 08:29:30;;;;;;;20.93;11.90;;;5.90;99.90;;;;;;5023374;28;20498;-30
2023/12/01 08:31:59;;;;;;;17.65;10.68;;;5.90;99.90;;;;;;5022594;28;21192;-32
2023/12/01 08:34:26;;;;;;;17.17;11.40;;;5.80;99.90;;;;;;5028971;28;20203;-29
2023/12/01 08:36:52;;;;;;;19.67;11.40;;;5.90;99.90;;;;;;5032155;28;20843;-29
2023/12/01 08:39:18;;;;;;;21.40;10.93;;;5.90;99.90;;;;;;5028702;28;20427;-31
2023/12/01 08:41:44;;;;;;;19.10;11.80;;;5.90;99.90;;;;;;5035107;28;20998;-30
2023/12/01 08:44:10;;;;;;;18.80;12.03;;;5.90;99.90;;;;;;5027688;28;20504;-31
2023/12/01 08:46:36;;;;;;;16.93;11.07;;;5.90;99.90;;;;;;5028629;28;20802;-30
2023/12/01 08:49:02;;;;;;;13.90;9.57;;;5.90;99.90;;;;;;5031984;28;20486;-32
2023/12/01 08:51:31;;;;;;;17.33;10.40;;;5.90;99.90;;;;;;5027660;28;20823;-30
2023/12/01 08:53:59;;;;;;;14.27;8.97;;;5.90;99.90;;;;;;5023479;28;20746;-29
2023/12/01 08:56:34;;;;;;;13.57;9.48;;;6.10;99.90;;;;;;5024977;28;20545;-30
2023/12/01 08:59:02;;;;;;;15.40;9.30;;;6.00;99.90;;;;;;5028804;28;20195;-30
2023/12/01 09:01:29;;;;;;;18.87;10.90;;;6.10;99.90;;;;;;5024168;28;20438;-29
2023/12/01 09:03:55;;;;;;;16.70;10.83;;;6.00;99.90;;;;;;5026087;28;20460;-31
2023/12/01 09:06:21;;;;;;;16.20;11.10;;;6.00;99.90;;;;;;5013938;28;20435;-31
2023/12/01 09:08:47;;;;;;;14.68;9.32;;;5.90;99.90;;;;;;5009034;28;20833;-31
2023/12/01 09:11:14;;;;;;;17.63;10.20;;;5.90;99.90;;;;;;5030344;28;20211;-30
2023/12/01 09:13:42;;;;;;;18.97;10.57;;;5.90;99.90;;;;;;5026203;28;20450;-30
2023/12/01 09:16:08;;;;;;;12.80;8.80;;;6.00;99.90;;;;;;5027795;28;20433;-31
2023/12/01 09:18:34;;;;;;;15.00;8.65;;;5.90;99.90;;;;;;5025914;28;20427;-31
2023/12/01 09:21:25;;;;;;;15.80;10.40;;;5.90;99.90;;;;;;5028160;28;20226;-31
2023/12/01 09:23:56;;;;;;;14.55;9.32;;;6.00;99.90;;;;;;5029602;28;20459;-30
2023/12/01 09:26:24;;;;;;;13.50;9.23;;;6.00;99.90;;;;;;5018518;28;20707;-31
2023/12/01 09:28:51;;;;;;;13.67;9.03;;;6.00;99.90;;;;;;5023982;28;20422;-31
2023/12/01 09:31:24;;;;;;;15.20;9.20;;;6.00;99.90;;;;;;5032540;28;21090;-28
2023/12/01 09:33:50;;;;;;;16.63;9.00;;;5.90;99.90;;;;;;5029396;28;20460;-30
2023/12/01 09:36:19;;;;;;;11.38;8.10;;;5.80;99.90;;;;;;5031630;28;20421;-29
2023/12/01 09:38:49;;;;;;;14.73;9.70;;;5.90;99.90;;;;;;5023947;28;20218;-30
2023/12/01 09:41:19;;;;;;;14.03;9.07;;;5.90;99.90;;;;;;5037597;28;20602;-29
2023/12/01 09:43:48;;;;;;;14.63;8.23;;;5.90;99.90;;;;;;5036288;28;20937;-31
2023/12/01 09:46:17;;;;;;;12.43;8.73;;;5.80;99.90;;;;;;5036825;28;20347;-30
2023/12/01 09:48:45;;;;;;;15.10;9.13;;;5.90;99.90;;;;;;5031512;28;20512;-30
2023/12/01 09:51:14;;;;;;;14.23;8.90;;;5.90;99.90;;;;;;5033439;28;20589;-30
2023/12/01 09:53:41;;;;;;;11.45;8.95;;;5.80;99.90;;;;;;5036111;28;20318;-31
2023/12/01 09:56:10;;;;;;;14.70;9.93;;;5.80;99.90;;;;;;5031192;28;20214;-30
2023/12/01 09:58:36;;;;;;;13.43;9.53;;;5.80;99.90;;;;;;5029189;28;20187;-30
2023/12/01 10:01:05;;;;;;;11.80;8.70;;;5.80;99.90;;;;;;5034095;28;20556;-29
2023/12/01 10:03:31;;;;;;;13.17;8.90;;;5.80;99.90;;;;;;5031412;28;20457;-31
2023/12/01 10:06:01;;;;;;;14.83;8.70;;;5.80;99.90;;;;;;5036181;28;20928;-30
2023/12/01 10:08:32;;;;;;;13.85;8.65;;;5.80;99.90;;;;;;5030275;28;20445;-31
2023/12/01 10:11:17;;;;;;;14.63;8.75;;;6.00;99.90;;;;;;5030959;28;20258;-31
2023/12/01 10:13:43;;;;;;;15.30;9.17;;;5.80;99.90;;;;;;5032625;28;20244;-30
2023/12/01 10:16:12;;;;;;;13.30;9.10;;;5.90;99.90;;;;;;5036741;28;20993;-30
2023/12/01 10:18:38;;;;;;;14.90;8.93;;;5.90;99.90;;;;;;5035027;28;21032;-30
2023/12/01 10:21:07;;;;;;;16.10;9.40;;;5.90;99.90;;;;;;5031825;28;20289;-29
2023/12/01 10:23:33;;;;;;;14.68;9.18;;;5.90;99.90;;;;;;5037720;28;20444;-30
2023/12/01 10:26:06;;;;;;;16.75;9.50;;;5.90;99.90;;;;;;5029586;28;20185;-29
2023/12/01 10:28:40;;;;;;;12.60;8.83;;;5.90;96.80;;;;;;5025705;28;20196;-29
2023/12/01 10:31:06;;;;;;;15.53;9.53;;;6.00;96.70;;;;;;5032444;28;20518;-33
2023/12/01 10:33:34;;;;;;;13.97;9.57;;;5.90;96.70;;;;;;5035775;22;20514;-28
2023/12/01 10:36:05;;;;;;;16.13;10.00;;;5.90;96.80;;;;;;4996792;28;20427;-29
2023/12/01 10:38:35;;;;;;;14.40;9.43;;;5.90;97.20;;;;;;4964641;28;20211;-28
2023/12/01 10:41:03;;;;;;;13.53;9.50;;;5.90;96.80;;;;;;4995982;28;20445;-28
2023/12/01 10:43:35;;;;;;;13.80;9.65;;;5.90;96.80;;;;;;5001683;28;21014;-28
2023/12/01 10:46:05;;;;;;;17.33;9.80;;;5.90;96.90;;;;;;4980848;28;20237;-27
2023/12/01 10:48:34;;;;;;;16.60;9.63;;;5.90;96.80;;;;;;5003210;28;20464;-28
2023/12/01 10:51:07;;;;;;;15.95;10.82;;;5.90;96.80;;;;;;4978221;28;21037;-28
2023/12/01 10:53:35;;;;;;;15.65;10.38;;;5.90;96.90;;;;;;5003189;28;20272;-28
2023/12/01 10:56:05;;;;;;;16.93;10.30;;;5.90;96.90;;;;;;5008056;28;21028;-28
2023/12/01 10:58:35;;;;;;;13.67;9.83;;;5.90;96.90;;;;;;5007296;28;20493;-28
2023/12/01 11:01:02;;;;;;;17.02;10.43;;;5.90;97.00;;;;;;4950111;28;20429;-28
2023/12/01 11:03:30;;;;;;;16.83;10.50;;;5.80;97.00;;;;;;5012966;28;20206;-28
2023/12/01 11:06:04;;;;;;;15.30;9.90;;;5.90;97.00;;;;;;4996187;28;20216;-29
2023/12/01 11:09:03;;;;;;;16.52;9.73;;;5.80;96.90;;;;;;4999225;28;20201;-29
2023/12/01 11:12:12;;;;;;;18.02;10.85;;;5.80;96.90;;;;;;4995650;28;20285;-28
2023/12/01 11:14:38;;;;;;;17.67;10.70;;;5.90;97.00;;;;;;4998172;28;20205;-27
2023/12/01 11:17:07;;;;;;;17.55;11.15;;;5.90;96.90;;;;;;4999900;28;20182;-29
2023/12/01 11:19:42;;;;;;;18.23;11.23;;;5.90;96.90;;;;;;5008545;28;20540;-28
2023/12/01 11:22:26;;;;;;;17.73;11.07;;;5.90;96.90;;;;;;5004130;28;20451;-28
2023/12/01 11:24:53;;;;;;;18.60;11.30;;;5.90;96.80;;;;;;5005907;28;20697;-28
2023/12/01 11:27:19;;;;;;;18.13;11.27;;;5.90;96.80;;;;;;5010447;28;20510;-28
2023/12/01 11:29:58;;;;;;;16.50;10.83;;;5.90;96.90;;;;;;4996646;28;20199;-28
2023/12/01 11:32:38;;;;;;;19.67;11.00;;;5.90;96.90;;;;;;5004652;28;20893;-28
2023/12/01 11:35:09;;;;;;;18.13;11.30;;;5.90;96.90;;;;;;5004652;28;20204;-29
2023/12/01 11:37:54;;;;;;;23.00;12.60;;;5.90;96.90;;;;;;5005562;28;20463;-29
2023/12/01 11:40:24;;;;;;;16.50;11.80;;;5.90;96.80;;;;;;5000505;28;20443;-28
2023/12/01 11:42:56;;;;;;;20.33;11.97;;;5.90;96.90;;;;;;5001724;28;20282;-28
2023/12/01 11:45:41;;;;;;;19.90;11.75;;;5.90;97.00;;;;;;4996898;28;20674;-28
2023/12/01 11:48:09;;;;;;;24.05;12.73;;;5.90;97.00;;;;;;5006676;28;20212;-29
2023/12/01 11:50:40;;;;;;;19.77;12.70;;;5.90;96.80;;;;;;4996741;28;20644;-28
2023/12/01 11:53:14;;;;;;;21.47;12.73;;;5.90;96.70;;;;;;5000354;28;20965;-28
2023/12/01 11:55:43;;;;;;;22.80;12.90;;;5.90;96.70;;;;;;5000716;28;21153;-28
2023/12/01 11:58:15;;;;;;;25.27;12.55;;;5.90;96.70;;;;;;5003681;28;21221;-28
2023/12/01 12:00:41;;;;;;;20.50;12.13;;;5.90;96.70;;;;;;5010543;28;20187;-28
2023/12/01 12:03:20;;;;;;;24.55;15.07;;;5.90;96.70;;;;;;5003529;28;20452;-29
2023/12/01 12:05:52;;;;;;;21.60;13.57;;;5.90;96.70;;;;;;5000411;28;20215;-29
2023/12/01 12:08:18;;;;;;;21.38;12.70;;;5.90;96.70;;;;;;4997025;28;21192;-29
2023/12/01 12:10:44;;;;;;;23.35;13.60;;;5.90;96.70;;;;;;5000610;28;20908;-28
2023/12/01 12:13:15;;;;;;;20.90;14.02;;;5.90;96.80;;;;;;5001520;28;20623;-28
2023/12/01 12:15:44;;;;;;;24.15;14.77;;;5.90;96.80;;;;;;5001350;28;20202;-29
2023/12/01 12:18:15;;;;;;;21.45;12.52;;;5.80;96.80;;;;;;4998443;28;20229;-28
2023/12/01 12:20:41;;;;;;;21.67;13.23;;;5.80;96.90;;;;;;4996735;28;20194;-29
2023/12/01 12:23:07;;;;;;;22.80;12.90;;;5.90;96.90;;;;;;4999882;28;20209;-28
2023/12/01 12:25:35;;;;;;;21.97;14.10;;;5.90;96.80;;;;;;4999989;28;21135;-28
2023/12/01 12:28:12;;;;;;;21.95;12.88;;;5.90;96.70;;;;;;5002150;28;20876;-28
2023/12/01 12:30:39;;;;;;;19.10;12.77;;;5.90;96.70;;;;;;4998299;28;20249;-29
2023/12/01 12:33:07;;;;;;;25.23;13.23;;;5.90;96.70;;;;;;4981976;28;20464;-29
2023/12/01 12:35:35;;;;;;;22.97;14.40;;;5.90;96.70;;;;;;5011895;28;21053;-29
2023/12/01 12:38:04;;;;;;;21.73;13.27;;;5.90;96.60;;;;;;5010133;28;20464;-28
2023/12/01 12:40:35;;;;;;;18.73;11.73;;;5.90;96.60;;;;;;5000998;28;20616;-28
2023/12/01 12:43:05;;;;;;;20.60;12.68;;;5.90;96.70;;;;;;5001161;28;20448;-28
2023/12/01 12:45:34;;;;;;;20.63;13.03;;;5.90;96.70;;;;;;5015447;28;20573;-28
2023/12/01 12:48:09;;;;;;;22.03;12.20;;;5.90;96.70;;;;;;5015667;28;20426;-29
2023/12/01 12:50:48;;;;;;;26.00;14.95;;;5.90;96.60;;;;;;5002747;28;20565;-28